createdAt,value
2022-08-22T00:03:05.223Z,1303.1
2022-08-22T03:05:01.880Z,0.1
2022-08-22T03:07:01.102Z,0.2
2022-08-22T03:08:01.098Z,0.3
2022-08-22T03:10:01.341Z,0.4
2022-08-22T03:11:01.100Z,0.5
2022-08-22T03:13:01.099Z,0.6
2022-08-22T03:14:01.098Z,0.7
2022-08-22T03:16:01.101Z,0.9
2022-08-22T03:17:01.106Z,1.1
2022-08-22T03:18:01.251Z,1.2
2022-08-22T03:19:01.102Z,1.3
2022-08-22T03:20:01.807Z,1.5
2022-08-22T03:21:01.101Z,1.6
2022-08-22T03:22:01.104Z,1.7
2022-08-22T03:23:01.101Z,2.0
2022-08-22T03:24:01.102Z,2.3
2022-08-22T03:25:01.363Z,2.7
2022-08-22T03:26:01.102Z,3.1
2022-08-22T03:27:01.107Z,3.5
2022-08-22T03:28:01.291Z,4.1
2022-08-22T03:29:01.102Z,4.7
2022-08-22T03:30:01.804Z,5.5
2022-08-22T03:31:01.103Z,6.3
2022-08-22T03:32:01.113Z,7.1
2022-08-22T03:33:01.109Z,8.3
2022-08-22T03:34:01.110Z,9.5
2022-08-22T03:35:01.322Z,11.2
2022-08-22T03:36:01.111Z,12.9
2022-08-22T03:37:01.118Z,14.7
2022-08-22T03:38:01.102Z,17.1
2022-08-22T03:39:01.102Z,19.6
2022-08-22T03:40:01.404Z,23.3
2022-08-22T03:41:01.104Z,26.9
2022-08-22T03:42:01.103Z,30.6
2022-08-22T03:43:01.103Z,35.9
2022-08-22T03:44:01.111Z,41.3
2022-08-22T03:46:01.104Z,57.0
2022-08-22T03:47:02.213Z,64.9
2022-08-22T03:48:01.116Z,76.5
2022-08-22T03:49:01.111Z,88.2
2022-08-22T03:50:01.334Z,105.3
2022-08-22T03:51:01.116Z,122.3
2022-08-22T03:52:01.110Z,139.4
2022-08-22T03:53:01.110Z,164.1
2022-08-22T03:54:01.108Z,188.7
2022-08-22T03:55:01.362Z,224.2
2022-08-22T03:56:01.107Z,259.7
2022-08-22T03:57:01.112Z,295.1
2022-08-22T03:58:01.111Z,345.4
2022-08-22T03:59:01.109Z,395.7
2022-08-22T04:00:02.709Z,463.4
2022-08-22T04:01:01.186Z,531.1
2022-08-22T04:03:01.097Z,625.1
2022-08-22T04:04:01.168Z,714.8
2022-08-22T04:05:01.269Z,832.3
2022-08-22T04:06:01.099Z,943.7
2022-08-22T04:07:01.199Z,1055.2
2022-08-22T04:08:01.101Z,1191.2
2022-08-22T04:09:01.186Z,1318.7
2022-08-22T04:10:01.845Z,1473.7
2022-08-22T04:11:02.555Z,1616.5
2022-08-22T04:12:01.106Z,1759.3
2022-08-22T04:13:01.098Z,1931.7
2022-08-22T04:14:01.104Z,2087.5
2022-08-22T04:15:01.801Z,2281.0
2022-08-22T04:16:01.162Z,2454.2
2022-08-22T04:17:01.100Z,2627.4
2022-08-22T04:18:01.102Z,2815.9
2022-08-22T04:19:01.099Z,3004.3
2022-08-22T04:20:01.342Z,3209.8
2022-08-22T04:21:01.108Z,3415.3
2022-08-22T04:22:01.107Z,3620.7
2022-08-22T04:23:01.101Z,3848.2
2022-08-22T04:24:01.100Z,4075.7
2022-08-22T04:26:01.101Z,4574.9
2022-08-22T04:27:01.098Z,4824.5
2022-08-22T04:28:01.103Z,5097.2
2022-08-22T04:29:01.100Z,5369.9
2022-08-22T04:31:01.103Z,5952.3
2022-08-22T04:32:01.132Z,6243.5
2022-08-22T04:33:01.101Z,6548.0
2022-08-22T04:34:01.107Z,6852.5
2022-08-22T04:35:01.325Z,7171.1
2022-08-22T04:36:01.100Z,7489.7
2022-08-22T04:37:01.108Z,7808.3
2022-08-22T04:38:01.148Z,8141.7
2022-08-22T04:39:01.110Z,8475.1
2022-08-22T04:41:04.336Z,9171.2
2022-08-22T04:42:16.234Z,9519.3
2022-08-22T04:43:01.085Z,9875.0
2022-08-22T04:44:01.100Z,10230.7
2022-08-22T04:46:01.101Z,10940.7
2022-08-22T04:47:01.099Z,11295.7
2022-08-22T04:48:01.157Z,11647.1
2022-08-22T04:49:01.105Z,11998.5
2022-08-22T04:50:01.261Z,12328.4
2022-08-22T04:51:01.123Z,12658.3
2022-08-22T04:52:01.109Z,12988.1
2022-08-22T04:53:01.110Z,13287.3
2022-08-22T04:54:01.104Z,13586.4
2022-08-22T04:56:04.097Z,14127.1
2022-08-22T04:57:01.107Z,14397.4
2022-08-22T04:58:01.110Z,14670.2
2022-08-22T04:59:01.110Z,14943.0
2022-08-22T05:00:02.965Z,15247.7
2022-08-22T05:01:01.111Z,15552.3
2022-08-22T05:02:01.183Z,15857.0
2022-08-22T05:03:01.153Z,16179.2
2022-08-22T05:04:01.116Z,16501.4
2022-08-22T05:06:01.110Z,17181.4
2022-08-22T05:07:01.202Z,17521.4
2022-08-22T05:08:01.172Z,17877.3
2022-08-22T05:09:01.113Z,18233.1
2022-08-22T05:10:09.201Z,18615.7
2022-08-22T05:11:01.119Z,18998.3
2022-08-22T05:12:01.126Z,19380.9
2022-08-22T05:13:01.116Z,19844.1
2022-08-22T05:14:01.110Z,20307.2
2022-08-22T05:16:01.110Z,23042.4
2022-08-22T05:17:01.187Z,24410.0
2022-08-22T05:18:01.120Z,24998.7
2022-08-22T05:19:01.179Z,25587.3
2022-08-22T05:20:01.276Z,25880.2
2022-08-22T05:22:01.171Z,26173.1
2022-08-22T05:23:01.102Z,26504.1
2022-08-22T05:24:01.172Z,26788.6
2022-08-22T05:25:01.148Z,27125.1
2022-08-22T05:26:01.744Z,27399.4
2022-08-22T05:27:01.099Z,27673.7
2022-08-22T05:28:01.102Z,27989.1
2022-08-22T05:29:01.104Z,28161.1
2022-08-22T05:30:01.144Z,28374.3
2022-08-22T05:31:01.743Z,27595.7
2022-08-22T05:32:01.120Z,26817.2
2022-08-22T05:33:01.098Z,26104.1
2022-08-22T05:34:01.104Z,26101.3
2022-08-22T05:35:01.153Z,26194.9
2022-08-22T05:36:01.740Z,26529.2
2022-08-22T05:37:01.101Z,26863.5
2022-08-22T05:38:01.105Z,27214.6
2022-08-22T05:39:01.110Z,27565.7
2022-08-22T05:40:01.187Z,27898.1
2022-08-22T05:41:01.823Z,28230.5
2022-08-22T05:42:01.110Z,28562.9
2022-08-22T05:43:01.105Z,28920.6
2022-08-22T05:44:01.103Z,29278.3
2022-08-22T05:45:01.164Z,29682.9
2022-08-22T05:46:02.780Z,30087.6
2022-08-22T05:47:01.103Z,30492.3
2022-08-22T05:48:01.111Z,30920.4
2022-08-22T05:49:01.111Z,31348.5
2022-08-22T05:50:01.139Z,31739.4
2022-08-22T05:51:01.743Z,32130.3
2022-08-22T05:52:01.111Z,32521.1
2022-08-22T05:53:01.115Z,32898.6
2022-08-22T05:54:01.113Z,33276.1
2022-08-22T05:55:01.156Z,33654.7
2022-08-22T05:56:01.785Z,34033.3
2022-08-22T05:57:03.115Z,34411.9
2022-08-22T05:58:02.128Z,34697.1
2022-08-22T05:59:01.114Z,34982.4
2022-08-22T06:00:01.143Z,35164.3
2022-08-22T06:01:01.757Z,35346.1
2022-08-22T06:02:01.180Z,35528.0
2022-08-22T06:03:01.122Z,35604.7
2022-08-22T06:04:01.110Z,35681.5
2022-08-22T06:05:01.161Z,35691.6
2022-08-22T06:06:01.751Z,35701.7
2022-08-22T06:07:01.115Z,35711.9
2022-08-22T06:08:01.114Z,35698.3
2022-08-22T06:09:01.117Z,35684.7
2022-08-22T06:10:01.372Z,35869.8
2022-08-22T06:11:01.786Z,36054.9
2022-08-22T06:12:01.120Z,36240.1
2022-08-22T06:14:01.098Z,36739.9
2022-08-22T06:15:01.146Z,37747.3
2022-08-22T06:16:01.766Z,38769.8
2022-08-22T06:17:01.101Z,39792.3
2022-08-22T06:18:01.111Z,40968.1
2022-08-22T06:19:01.102Z,42160.0
2022-08-22T06:20:01.145Z,44045.7
2022-08-22T06:21:01.969Z,45938.8
2022-08-22T06:22:01.124Z,47831.9
2022-08-22T06:23:01.107Z,49846.7
2022-08-22T06:24:01.104Z,51843.7
2022-08-22T06:25:01.140Z,53623.3
2022-08-22T06:26:01.836Z,55169.9
2022-08-22T06:27:01.106Z,56716.5
2022-08-22T06:28:01.104Z,58482.1
2022-08-22T06:29:01.111Z,59959.9
2022-08-22T06:30:01.132Z,60930.2
2022-08-22T06:31:01.762Z,61900.5
2022-08-22T06:32:01.141Z,62870.7
2022-08-22T06:33:01.190Z,63687.8
2022-08-22T06:34:01.103Z,64504.9
2022-08-22T06:35:01.135Z,64628.2
2022-08-22T06:36:01.807Z,64751.5
2022-08-22T06:37:01.102Z,64874.9
2022-08-22T06:38:01.105Z,64876.5
2022-08-22T06:39:01.112Z,64878.2
2022-08-22T06:40:01.185Z,65097.1
2022-08-22T06:41:01.848Z,65316.1
2022-08-22T06:42:01.128Z,65535.0
2022-08-22T06:45:01.139Z,65535.0
2022-08-22T07:00:01.129Z,65535.0
2022-08-22T07:15:01.128Z,65535.0
2022-08-22T07:30:01.116Z,65535.0
2022-08-22T07:45:01.116Z,65535.0
2022-08-22T08:00:01.191Z,65535.0
2022-08-22T08:15:01.145Z,65535.0
2022-08-22T08:30:01.242Z,65535.0
2022-08-22T08:45:01.161Z,65535.0
2022-08-22T09:00:01.122Z,65535.0
2022-08-22T09:15:01.115Z,65535.0
2022-08-22T09:30:01.107Z,65535.0
2022-08-22T10:30:01.737Z,65535.0
2022-08-22T11:00:03.543Z,65535.0
2022-08-22T11:15:04.210Z,65535.0
2022-08-22T12:00:06.906Z,65535.0
2022-08-22T12:30:01.780Z,65535.0
2022-08-22T12:45:04.050Z,65535.0
2022-08-22T13:00:02.740Z,65535.0
2022-08-22T14:00:07.829Z,65535.0
2022-08-22T15:30:03.249Z,65535.0
2022-08-22T15:45:01.807Z,65535.0
2022-08-22T16:00:12.376Z,65535.0
2022-08-22T16:30:01.877Z,65535.0
2022-08-22T16:33:01.229Z,65431.4
2022-08-22T16:34:01.119Z,65327.8
2022-08-22T16:36:01.103Z,64321.3
2022-08-22T16:37:01.162Z,63418.3
2022-08-22T16:38:01.314Z,61982.5
2022-08-22T16:39:01.166Z,60546.6
2022-08-22T16:41:01.100Z,57205.7
2022-08-22T16:42:01.099Z,55300.6
2022-08-22T16:43:01.187Z,53128.9
2022-08-22T16:44:01.125Z,50957.1
2022-08-22T16:46:01.099Z,46458.5
2022-08-22T16:47:01.096Z,44131.7
2022-08-22T16:48:02.170Z,41655.3
2022-08-22T16:49:01.125Z,39178.9
2022-08-22T16:51:01.103Z,34823.5
2022-08-22T16:52:01.106Z,32944.5
2022-08-22T16:53:01.101Z,31435.5
2022-08-22T16:54:01.133Z,29926.5
2022-08-22T16:55:01.753Z,28417.5
2022-08-22T16:56:01.119Z,27268.0
2022-08-22T16:57:01.123Z,26118.5
2022-08-22T16:58:06.261Z,25218.5
2022-08-22T16:59:14.036Z,24318.4
2022-08-22T17:00:03.316Z,23418.3
2022-08-22T17:01:01.098Z,22795.7
2022-08-22T17:02:01.162Z,22173.0
2022-08-22T17:03:01.099Z,21981.9
2022-08-22T17:04:01.153Z,21790.9
2022-08-22T17:06:01.394Z,21710.1
2022-08-22T17:07:01.101Z,21820.3
2022-08-22T17:08:01.300Z,22164.5
2022-08-22T17:09:01.254Z,22508.6
2022-08-22T17:10:01.346Z,22852.7
2022-08-22T17:11:01.104Z,23355.9
2022-08-22T17:12:01.130Z,23859.0
2022-08-22T17:13:01.105Z,24469.5
2022-08-22T17:14:01.135Z,25080.1
2022-08-22T17:15:04.477Z,25690.6
2022-08-22T17:16:01.105Z,26229.7
2022-08-22T17:17:01.303Z,26768.7
2022-08-22T17:18:01.304Z,27186.9
2022-08-22T17:19:01.132Z,27605.1
2022-08-22T17:20:01.350Z,28023.3
2022-08-22T17:21:01.103Z,28435.2
2022-08-22T17:22:01.237Z,28847.1
2022-08-22T17:23:01.110Z,29127.5
2022-08-22T17:24:01.141Z,29407.9
2022-08-22T17:25:05.364Z,29688.3
2022-08-22T17:26:01.105Z,29879.3
2022-08-22T17:27:01.105Z,30070.3
2022-08-22T17:28:01.203Z,30147.1
2022-08-22T17:29:01.287Z,30223.9
2022-08-22T17:30:04.253Z,30300.7
2022-08-22T17:31:01.125Z,30278.9
2022-08-22T17:32:01.174Z,30257.2
2022-08-22T17:33:01.107Z,30252.4
2022-08-22T17:34:01.346Z,30247.6
2022-08-22T17:36:01.161Z,30236.1
2022-08-22T17:37:01.097Z,30131.5
2022-08-22T17:38:01.344Z,30005.3
2022-08-22T17:39:01.087Z,29939.6
2022-08-22T17:40:02.526Z,29873.9
2022-08-22T17:41:01.108Z,29807.3
2022-08-22T17:42:01.104Z,29780.7
2022-08-22T17:43:01.111Z,29715.4
2022-08-22T17:44:01.161Z,29674.2
2022-08-22T17:45:01.857Z,29633.0
2022-08-22T17:46:01.099Z,29492.5
2022-08-22T17:47:01.101Z,29399.7
2022-08-22T17:48:01.225Z,29224.3
2022-08-22T17:49:01.111Z,28974.5
2022-08-22T17:50:02.976Z,28724.6
2022-08-22T17:51:01.133Z,28418.9
2022-08-22T17:52:01.130Z,28113.1
2022-08-22T17:53:01.133Z,27775.9
2022-08-22T17:54:01.103Z,27438.7
2022-08-22T17:56:01.120Z,26678.5
2022-08-22T17:57:06.111Z,26255.5
2022-08-22T17:58:01.271Z,25738.9
2022-08-22T17:59:01.095Z,25222.2
2022-08-22T18:01:01.158Z,24196.3
2022-08-22T18:02:01.095Z,23687.1
2022-08-22T18:03:01.190Z,23158.5
2022-08-22T18:04:01.111Z,22629.9
2022-08-22T18:06:01.140Z,21515.9
2022-08-22T18:07:01.097Z,20930.5
2022-08-22T18:08:01.096Z,20259.5
2022-08-22T18:09:16.596Z,19588.5
2022-08-22T18:11:01.100Z,18190.5
2022-08-22T18:12:01.098Z,17463.4
2022-08-22T18:13:04.896Z,16754.3
2022-08-22T18:14:01.188Z,16045.3
2022-08-22T18:15:01.839Z,15336.2
2022-08-22T18:16:01.137Z,14596.7
2022-08-22T18:17:01.115Z,13857.1
2022-08-22T18:18:01.132Z,13126.8
2022-08-22T18:19:01.107Z,12396.5
2022-08-22T18:20:02.865Z,11666.1
2022-08-22T18:21:01.149Z,10984.1
2022-08-22T18:22:02.134Z,10302.1
2022-08-22T18:23:01.331Z,9700.6
2022-08-22T18:24:01.172Z,9099.1
2022-08-22T18:26:01.142Z,7978.4
2022-08-22T18:27:01.242Z,7459.3
2022-08-22T18:28:01.232Z,7005.4
2022-08-22T18:29:01.172Z,6551.5
2022-08-22T18:31:01.172Z,5730.7
2022-08-22T18:32:01.105Z,5363.7
2022-08-22T18:33:01.250Z,5063.9
2022-08-22T18:34:01.117Z,4764.2
2022-08-22T18:35:03.888Z,4464.5
2022-08-22T18:36:01.474Z,4209.5
2022-08-22T18:37:01.110Z,3954.5
2022-08-22T18:38:01.111Z,3723.3
2022-08-22T18:39:01.113Z,3492.2
2022-08-22T18:40:02.106Z,3261.1
2022-08-22T18:41:01.145Z,3066.3
2022-08-22T18:42:01.113Z,2871.6
2022-08-22T18:43:01.258Z,2699.3
2022-08-22T18:45:01.738Z,2527.1
2022-08-22T18:46:06.122Z,2334.5
2022-08-22T18:47:06.173Z,2177.3
2022-08-22T18:48:01.099Z,2007.3
2022-08-22T18:49:14.999Z,1862.7
2022-08-22T18:51:01.119Z,1562.8
2022-08-22T18:52:01.099Z,1433.9
2022-08-22T18:53:01.339Z,1291.7
2022-08-22T18:54:01.097Z,1183.9
2022-08-22T18:55:02.265Z,1076.1
2022-08-22T18:56:01.131Z,956.7
2022-08-22T18:57:01.100Z,861.4
2022-08-22T18:58:01.100Z,759.3
2022-08-22T18:59:05.126Z,683.9
2022-08-22T19:00:03.022Z,608.4
2022-08-22T19:01:01.172Z,548.4
2022-08-22T19:02:01.194Z,488.4
2022-08-22T19:03:01.138Z,437.9
2022-08-22T19:04:01.097Z,387.5
2022-08-22T19:06:01.210Z,294.9
2022-08-22T19:07:01.115Z,252.7
2022-08-22T19:08:01.101Z,222.1
2022-08-22T19:09:01.170Z,191.5
2022-08-22T19:10:03.093Z,160.9
2022-08-22T19:11:01.165Z,140.7
2022-08-22T19:12:01.136Z,120.5
2022-08-22T19:13:01.281Z,106.3
2022-08-22T19:14:01.110Z,92.0
2022-08-22T19:15:03.183Z,77.7
2022-08-22T19:16:01.173Z,67.8
2022-08-22T19:17:06.108Z,57.9
2022-08-22T19:18:01.113Z,50.9
2022-08-22T19:19:01.105Z,44.0
2022-08-22T19:20:01.758Z,37.1
2022-08-22T19:21:01.139Z,32.2
2022-08-22T19:22:01.147Z,27.3
2022-08-22T19:23:01.203Z,24.0
2022-08-22T19:24:01.108Z,20.7
2022-08-22T19:25:03.554Z,17.3
2022-08-22T19:26:01.105Z,15.1
2022-08-22T19:27:01.129Z,12.8
2022-08-22T19:28:01.112Z,11.3
2022-08-22T19:29:01.112Z,9.8
2022-08-22T19:31:01.110Z,7.2
2022-08-22T19:32:01.137Z,6.1
2022-08-22T19:33:01.179Z,5.5
2022-08-22T19:34:01.108Z,4.7
2022-08-22T19:35:02.731Z,4.0
2022-08-22T19:36:01.106Z,3.5
2022-08-22T19:37:01.292Z,3.1
2022-08-22T19:38:01.209Z,2.7
2022-08-22T19:39:01.178Z,2.4
2022-08-22T19:40:05.651Z,2.1
2022-08-22T19:41:01.112Z,1.9
2022-08-22T19:42:01.380Z,1.7
2022-08-22T19:43:01.315Z,1.5
2022-08-22T19:44:06.126Z,1.3
2022-08-22T19:45:01.828Z,1.1
2022-08-22T19:46:01.168Z,0.9
2022-08-22T19:48:01.098Z,0.8
2022-08-22T19:49:01.096Z,0.7
2022-08-22T19:50:01.290Z,0.6
2022-08-22T19:51:01.161Z,0.5
2022-08-22T19:53:01.330Z,0.4
2022-08-22T19:54:01.103Z,0.3
2022-08-22T19:56:01.105Z,0.2
2022-08-22T19:57:01.095Z,0.1
